createdAt,value
2019-06-26T00:00:25.244Z,8.97
2019-06-26T00:02:55.063Z,8.90
2019-06-26T00:05:24.919Z,8.00
2019-06-26T00:07:54.833Z,9.67
2019-06-26T00:10:24.741Z,10.23
2019-06-26T00:12:54.582Z,9.40
2019-06-26T00:15:24.545Z,8.90
2019-06-26T00:17:54.230Z,9.07
2019-06-26T00:20:24.099Z,9.07
2019-06-26T00:22:54.143Z,9.50
2019-06-26T00:25:23.825Z,9.60
2019-06-26T00:27:53.548Z,9.30
2019-06-26T00:30:23.358Z,9.93
2019-06-26T00:32:53.172Z,9.50
2019-06-26T00:35:22.994Z,10.77
2019-06-26T00:37:52.824Z,9.17
2019-06-26T00:40:22.928Z,9.73
2019-06-26T00:42:52.846Z,9.13
2019-06-26T00:45:22.573Z,9.83
2019-06-26T00:47:52.405Z,11.30
2019-06-26T00:50:22.271Z,10.60
2019-06-26T00:52:52.021Z,9.63
2019-06-26T00:55:21.935Z,9.90
2019-06-26T00:57:51.676Z,9.60
2019-06-26T01:00:27.129Z,10.20
2019-06-26T01:02:56.872Z,9.40
2019-06-26T01:05:26.600Z,10.33
2019-06-26T01:07:56.491Z,10.67
2019-06-26T01:10:26.364Z,11.40
2019-06-26T01:12:56.107Z,11.30
2019-06-26T01:15:25.888Z,11.53
2019-06-26T01:17:55.648Z,9.90
2019-06-26T01:20:25.393Z,10.40
2019-06-26T01:22:55.091Z,10.17
2019-06-26T01:25:24.881Z,11.17
2019-06-26T01:27:54.769Z,10.50
2019-06-26T01:30:24.614Z,11.13
2019-06-26T01:32:54.443Z,11.43
2019-06-26T01:35:24.253Z,11.70
2019-06-26T01:37:54.021Z,11.17
2019-06-26T01:40:23.875Z,11.53
2019-06-26T01:42:53.557Z,10.10
2019-06-26T01:45:23.332Z,11.93
2019-06-26T01:47:53.225Z,11.07
2019-06-26T01:50:23.066Z,10.17
2019-06-26T01:52:52.852Z,9.30
2019-06-26T01:55:22.611Z,9.83
2019-06-26T01:57:52.379Z,10.47
2019-06-26T02:00:22.540Z,10.30
2019-06-26T02:02:52.417Z,11.70
2019-06-26T02:05:22.236Z,10.43
2019-06-26T02:07:52.072Z,10.53
2019-06-26T02:10:21.949Z,11.87
2019-06-26T02:12:51.740Z,11.63
2019-06-26T02:15:21.675Z,11.47
2019-06-26T02:17:51.608Z,12.20
2019-06-26T02:20:21.335Z,10.87
2019-06-26T02:22:51.105Z,11.53
2019-06-26T02:25:21.011Z,10.73
2019-06-26T02:27:50.859Z,11.67
2019-06-26T02:30:20.692Z,11.67
2019-06-26T02:32:50.499Z,11.43
2019-06-26T02:35:20.295Z,12.93
2019-06-26T02:37:50.157Z,10.60
2019-06-26T02:40:20.100Z,11.77
2019-06-26T02:42:49.952Z,11.97
2019-06-26T02:45:19.662Z,11.57
2019-06-26T02:47:49.433Z,11.60
2019-06-26T02:50:19.229Z,10.73
2019-06-26T02:52:49.087Z,11.37
2019-06-26T02:55:18.946Z,12.77
2019-06-26T02:57:48.685Z,10.63
2019-06-26T03:00:18.573Z,11.90
2019-06-26T03:02:48.287Z,11.83
2019-06-26T03:05:18.171Z,11.70
2019-06-26T03:07:47.945Z,11.17
2019-06-26T03:10:17.946Z,12.40
2019-06-26T03:12:47.645Z,11.57
2019-06-26T03:15:17.989Z,11.67
2019-06-26T03:17:55.520Z,12.97
2019-06-26T03:20:22.213Z,10.90
2019-06-26T03:22:52.078Z,12.43
2019-06-26T03:25:22.049Z,11.37
2019-06-26T03:27:51.833Z,12.70
2019-06-26T03:30:21.786Z,11.60
2019-06-26T03:32:51.565Z,11.60
2019-06-26T03:35:21.405Z,10.87
2019-06-26T03:37:51.189Z,12.13
2019-06-26T03:40:21.032Z,11.93
2019-06-26T03:42:50.836Z,12.67
2019-06-26T03:45:25.568Z,12.83
2019-06-26T03:47:52.271Z,12.80
2019-06-26T03:50:22.233Z,11.10
2019-06-26T03:52:52.170Z,12.00
2019-06-26T03:55:22.118Z,12.97
2019-06-26T03:57:51.877Z,12.33
2019-06-26T04:00:33.507Z,12.07
2019-06-26T04:03:03.200Z,11.63
2019-06-26T04:05:33.794Z,11.57
2019-06-26T04:08:03.819Z,11.53
2019-06-26T04:10:34.581Z,13.37
2019-06-26T04:13:04.666Z,12.57
2019-06-26T04:15:41.883Z,12.77
2019-06-26T04:18:06.081Z,13.27
2019-06-26T04:20:35.844Z,11.00
2019-06-26T04:23:05.698Z,11.33
2019-06-26T04:25:38.082Z,12.77
2019-06-26T04:28:06.981Z,12.30
2019-06-26T04:30:36.769Z,12.30
2019-06-26T04:33:06.547Z,13.27
2019-06-26T04:35:36.265Z,11.47
2019-06-26T04:38:06.106Z,13.17
2019-06-26T04:40:35.876Z,12.77
2019-06-26T04:43:05.674Z,12.30
2019-06-26T04:45:35.435Z,11.73
2019-06-26T04:48:07.170Z,14.53
2019-06-26T04:50:36.767Z,14.47
2019-06-26T04:53:06.627Z,16.43
2019-06-26T04:55:36.522Z,14.53
2019-06-26T04:58:06.336Z,13.10
2019-06-26T05:00:36.126Z,13.60
2019-06-26T05:03:06.019Z,15.37
2019-06-26T05:05:39.808Z,14.87
2019-06-26T05:08:07.233Z,14.70
2019-06-26T05:10:37.060Z,16.03
2019-06-26T05:13:06.858Z,13.53
2019-06-26T05:15:36.666Z,15.70
2019-06-26T05:18:06.444Z,16.13
2019-06-26T05:20:36.189Z,15.17
2019-06-26T05:23:06.015Z,14.53
2019-06-26T05:25:35.818Z,13.07
2019-06-26T05:28:08.264Z,12.37
2019-06-26T05:30:37.201Z,12.63
2019-06-26T05:33:06.905Z,13.13
2019-06-26T05:35:36.877Z,12.33
2019-06-26T05:38:06.736Z,11.38
2019-06-26T05:40:36.426Z,11.30
2019-06-26T05:43:06.314Z,12.98
2019-06-26T05:45:36.161Z,12.28
2019-06-26T05:48:06.078Z,12.85
2019-06-26T05:50:35.886Z,12.45
2019-06-26T05:53:05.803Z,11.88
2019-06-26T05:55:35.649Z,13.18
2019-06-26T05:58:05.442Z,13.53
2019-06-26T06:00:35.219Z,12.58
2019-06-26T06:03:05.152Z,13.28
2019-06-26T06:05:35.034Z,12.60
2019-06-26T06:08:04.871Z,12.63
2019-06-26T06:10:34.723Z,12.35
2019-06-26T06:13:04.586Z,13.15
2019-06-26T06:15:34.314Z,12.18
2019-06-26T06:18:04.261Z,12.18
2019-06-26T06:20:38.883Z,13.10
2019-06-26T06:23:08.800Z,14.30
2019-06-26T06:25:38.711Z,13.10
2019-06-26T06:28:08.556Z,13.08
2019-06-26T06:30:38.324Z,13.40
2019-06-26T06:33:08.187Z,13.13
2019-06-26T06:35:37.957Z,13.25
2019-06-26T06:38:07.933Z,12.93
2019-06-26T06:40:37.702Z,15.93
2019-06-26T06:43:07.501Z,13.70
2019-06-26T06:45:37.349Z,12.65
2019-06-26T06:48:07.134Z,11.43
2019-06-26T06:50:36.845Z,13.98
2019-06-26T06:53:06.708Z,12.50
2019-06-26T06:55:36.512Z,12.58
2019-06-26T06:58:06.319Z,13.05
2019-06-26T07:00:36.255Z,13.50
2019-06-26T07:03:06.090Z,12.20
2019-06-26T07:05:35.898Z,12.33
2019-06-26T07:08:05.769Z,13.78
2019-06-26T07:10:35.674Z,11.83
2019-06-26T07:13:06.348Z,11.85
2019-06-26T07:15:36.141Z,13.25
2019-06-26T07:18:06.007Z,12.40
2019-06-26T07:20:35.869Z,11.57
2019-06-26T07:23:05.783Z,11.78
2019-06-26T07:25:35.636Z,12.88
2019-06-26T07:28:05.458Z,12.45
2019-06-26T07:30:35.243Z,12.37
2019-06-26T07:33:05.235Z,13.80
2019-06-26T07:35:35.072Z,12.58
2019-06-26T07:38:04.823Z,13.75
2019-06-26T07:40:34.767Z,11.35
2019-06-26T07:43:04.568Z,12.53
2019-06-26T07:45:34.274Z,11.75
2019-06-26T07:48:04.146Z,13.15
2019-06-26T07:50:34.012Z,11.25
2019-06-26T07:53:04.754Z,11.30
2019-06-26T07:55:34.437Z,10.63
2019-06-26T07:58:04.321Z,10.18
2019-06-26T08:00:34.294Z,10.72
2019-06-26T08:03:04.712Z,10.55
2019-06-26T08:05:34.999Z,10.53
2019-06-26T08:08:04.810Z,9.85
2019-06-26T08:10:34.519Z,10.58
2019-06-26T08:13:04.572Z,10.40
2019-06-26T08:15:34.407Z,14.28
2019-06-26T08:18:04.170Z,9.05
2019-06-26T08:20:47.036Z,9.15
2019-06-26T08:23:05.341Z,10.40
2019-06-26T08:25:35.197Z,12.78
2019-06-26T08:28:05.067Z,10.30
2019-06-26T08:30:34.897Z,11.70
2019-06-26T08:33:04.883Z,11.95
2019-06-26T08:35:34.665Z,10.68
2019-06-26T08:38:12.419Z,11.45
2019-06-26T08:40:36.136Z,11.85
2019-06-26T08:43:06.002Z,11.73
2019-06-26T08:45:35.847Z,10.05
2019-06-26T08:48:17.273Z,10.03
2019-06-26T08:50:37.097Z,9.93
2019-06-26T08:53:06.971Z,9.08
2019-06-26T08:55:36.764Z,9.35
2019-06-26T08:58:06.640Z,9.98
2019-06-26T09:00:36.469Z,9.55
2019-06-26T09:03:06.239Z,10.10
2019-06-26T09:05:47.574Z,10.53
2019-06-26T09:08:07.491Z,10.45
2019-06-26T09:10:37.425Z,10.98
2019-06-26T09:13:07.199Z,9.73
2019-06-26T09:15:36.966Z,9.43
2019-06-26T09:18:06.751Z,9.20
2019-06-26T09:20:41.024Z,11.03
2019-06-26T09:23:10.849Z,9.58
2019-06-26T09:25:40.617Z,8.83
2019-06-26T09:28:10.402Z,10.93
2019-06-26T09:30:40.222Z,8.28
2019-06-26T09:33:09.976Z,10.88
2019-06-26T09:35:39.821Z,10.95
2019-06-26T09:38:09.580Z,10.28
2019-06-26T09:40:39.369Z,11.95
2019-06-26T09:43:09.193Z,10.55
2019-06-26T09:45:38.985Z,12.50
2019-06-26T09:48:08.833Z,11.55
2019-06-26T09:50:38.647Z,10.48
2019-06-26T09:53:08.407Z,11.20
2019-06-26T09:55:38.160Z,12.47
2019-06-26T09:58:07.900Z,10.80
2019-06-26T10:00:37.896Z,10.78
2019-06-26T10:03:07.690Z,10.38
2019-06-26T10:05:37.451Z,9.45
2019-06-26T10:08:07.236Z,9.10
2019-06-26T10:10:36.935Z,11.55
2019-06-26T10:13:06.808Z,9.28
2019-06-26T10:15:36.641Z,10.85
2019-06-26T10:18:06.502Z,11.10
2019-06-26T10:20:36.262Z,12.35
2019-06-26T10:23:06.021Z,11.15
2019-06-26T10:25:35.881Z,9.93
2019-06-26T10:28:05.721Z,10.18
2019-06-26T10:30:35.503Z,8.63
2019-06-26T10:33:05.265Z,9.00
2019-06-26T10:35:35.063Z,9.88
2019-06-26T10:38:04.935Z,14.78
2019-06-26T10:40:34.721Z,12.45
2019-06-26T10:43:04.592Z,8.90
2019-06-26T10:45:36.192Z,9.48
2019-06-26T10:48:05.903Z,9.15
2019-06-26T10:50:47.421Z,10.93
2019-06-26T10:53:07.238Z,10.15
2019-06-26T10:55:37.005Z,10.53
2019-06-26T10:58:06.824Z,9.53
2019-06-26T11:00:36.635Z,10.85
2019-06-26T11:03:06.435Z,9.95
2019-06-26T11:05:36.189Z,9.63
2019-06-26T11:08:05.995Z,14.35
2019-06-26T11:10:35.749Z,10.45
2019-06-26T11:13:05.637Z,14.38
2019-06-26T11:15:35.455Z,22.82
2019-06-26T11:18:05.413Z,11.50
2019-06-26T11:20:35.267Z,11.38
2019-06-26T11:23:05.061Z,11.38
2019-06-26T11:25:34.890Z,10.18
2019-06-26T11:28:04.817Z,14.33
2019-06-26T11:30:34.621Z,9.95
2019-06-26T11:33:04.526Z,11.00
2019-06-26T11:35:34.373Z,9.70
2019-06-26T11:38:04.271Z,9.50
2019-06-26T11:40:34.142Z,20.80
2019-06-26T11:43:03.999Z,10.32
2019-06-26T11:45:33.919Z,11.25
2019-06-26T11:48:03.822Z,9.15
2019-06-26T11:50:33.576Z,10.35
2019-06-26T11:53:03.453Z,10.03
2019-06-26T11:55:33.357Z,11.93
2019-06-26T11:58:03.233Z,11.65
2019-06-26T12:00:32.946Z,13.65
2019-06-26T12:03:02.720Z,13.58
2019-06-26T12:05:32.435Z,12.55
2019-06-26T12:08:02.210Z,12.35
2019-06-26T12:10:31.933Z,11.03
2019-06-26T12:13:04.261Z,10.90
2019-06-26T12:15:33.252Z,21.15
2019-06-26T12:18:03.022Z,19.05
2019-06-26T12:20:32.801Z,9.33
2019-06-26T12:23:02.569Z,16.95
2019-06-26T12:25:32.344Z,11.83
2019-06-26T12:28:02.150Z,9.95
2019-06-26T12:30:32.153Z,10.25
2019-06-26T12:33:03.611Z,9.20
2019-06-26T12:35:33.453Z,10.28
2019-06-26T12:38:03.297Z,8.00
2019-06-26T12:40:32.998Z,7.95
2019-06-26T12:43:02.761Z,10.25
2019-06-26T12:45:32.632Z,9.63
2019-06-26T12:48:02.308Z,9.60
2019-06-26T12:50:35.966Z,9.08
2019-06-26T12:53:03.561Z,6.83
2019-06-26T12:55:33.299Z,6.58
2019-06-26T12:58:13.219Z,6.72
2019-06-26T13:00:34.839Z,6.58
2019-06-26T13:03:05.098Z,7.03
2019-06-26T13:05:34.852Z,6.62
2019-06-26T13:08:04.824Z,6.87
2019-06-26T13:10:48.491Z,11.10
2019-06-26T13:13:06.120Z,19.75
2019-06-26T13:15:35.933Z,7.97
2019-06-26T13:18:05.778Z,8.35
2019-06-26T13:20:51.587Z,6.20
2019-06-26T13:23:07.162Z,6.12
2019-06-26T13:25:36.933Z,6.50
2019-06-26T13:28:06.815Z,8.03
2019-06-26T13:30:39.971Z,8.30
2019-06-26T13:33:09.809Z,6.85
2019-06-26T13:35:39.680Z,6.87
2019-06-26T13:38:09.546Z,7.25
2019-06-26T13:40:41.070Z,8.05
2019-06-26T13:43:11.081Z,7.55
2019-06-26T13:45:40.828Z,8.98
2019-06-26T13:48:10.604Z,9.85
2019-06-26T13:50:40.519Z,7.67
2019-06-26T13:53:10.306Z,9.15
2019-06-26T13:55:40.859Z,8.48
2019-06-26T13:58:10.772Z,6.90
2019-06-26T14:00:40.465Z,10.08
2019-06-26T14:03:10.294Z,6.78
2019-06-26T14:05:40.174Z,7.40
2019-06-26T14:08:09.990Z,8.93
2019-06-26T14:10:39.796Z,8.05
2019-06-26T14:13:09.941Z,10.28
2019-06-26T14:15:39.623Z,7.10
2019-06-26T14:18:09.387Z,9.18
2019-06-26T14:20:39.184Z,10.93
2019-06-26T14:23:09.275Z,8.93
2019-06-26T14:25:38.973Z,9.05
2019-06-26T14:28:08.659Z,11.60
2019-06-26T14:30:38.388Z,12.03
2019-06-26T14:33:08.204Z,9.93
2019-06-26T14:35:38.138Z,8.75
2019-06-26T14:38:07.978Z,8.88
2019-06-26T14:40:37.807Z,10.78
2019-06-26T14:43:07.623Z,11.10
2019-06-26T14:45:37.397Z,10.10
2019-06-26T14:48:07.227Z,12.98
2019-06-26T14:50:36.972Z,9.18
2019-06-26T14:53:06.676Z,7.40
2019-06-26T14:55:36.447Z,7.80
2019-06-26T14:58:06.333Z,7.50
2019-06-26T15:00:36.317Z,7.85
2019-06-26T15:03:06.180Z,6.55
2019-06-26T15:05:35.862Z,9.73
2019-06-26T15:08:05.790Z,9.23
2019-06-26T15:10:35.664Z,10.68
2019-06-26T15:13:05.575Z,9.95
2019-06-26T15:15:35.469Z,9.43
2019-06-26T15:18:05.260Z,12.03
2019-06-26T15:20:34.973Z,10.88
2019-06-26T15:23:04.779Z,12.47
2019-06-26T15:25:34.567Z,10.82
2019-06-26T15:28:04.507Z,12.90
2019-06-26T15:30:34.453Z,9.05
2019-06-26T15:33:04.281Z,8.00
2019-06-26T15:35:34.436Z,9.20
2019-06-26T15:38:04.454Z,11.20
2019-06-26T15:40:34.436Z,11.63
2019-06-26T15:43:04.251Z,8.08
2019-06-26T15:45:34.034Z,7.95
2019-06-26T15:48:03.930Z,7.80
2019-06-26T15:50:33.608Z,7.85
2019-06-26T15:53:03.317Z,9.73
2019-06-26T15:55:33.135Z,8.55
2019-06-26T15:58:02.902Z,8.25
2019-06-26T16:00:32.652Z,8.08
2019-06-26T16:03:02.416Z,7.60
2019-06-26T16:05:32.134Z,8.38
2019-06-26T16:08:01.832Z,10.85
2019-06-26T16:10:34.471Z,9.88
2019-06-26T16:13:03.289Z,8.18
2019-06-26T16:15:33.757Z,7.05
2019-06-26T16:18:21.498Z,7.80
2019-06-26T16:20:51.245Z,9.93
2019-06-26T16:23:21.036Z,7.55
2019-06-26T16:25:50.796Z,7.67
2019-06-26T16:28:20.519Z,9.80
2019-06-26T16:30:50.327Z,6.80
2019-06-26T16:33:20.018Z,7.65
2019-06-26T16:35:49.857Z,8.45
2019-06-26T16:38:19.735Z,8.98
2019-06-26T16:40:49.481Z,7.60
2019-06-26T16:43:19.235Z,8.25
2019-06-26T16:45:49.027Z,6.75
2019-06-26T16:48:18.800Z,7.33
2019-06-26T16:50:48.600Z,7.25
2019-06-26T16:53:18.405Z,7.92
2019-06-26T16:55:48.180Z,5.78
2019-06-26T16:58:17.855Z,6.72
2019-06-26T17:00:47.750Z,5.20
2019-06-26T17:03:17.639Z,7.12
2019-06-26T17:05:47.395Z,5.33
2019-06-26T17:08:17.178Z,5.62
2019-06-26T17:10:46.994Z,4.53
2019-06-26T17:13:16.827Z,6.33
2019-06-26T17:15:46.668Z,4.67
2019-06-26T17:18:16.369Z,4.37
2019-06-26T17:20:46.209Z,6.03
2019-06-26T17:23:15.980Z,6.50
2019-06-26T17:25:45.731Z,5.27
2019-06-26T17:28:15.429Z,4.50
2019-06-26T17:30:45.096Z,4.30
2019-06-26T17:33:14.921Z,7.45
2019-06-26T17:35:44.775Z,4.57
2019-06-26T17:38:14.446Z,4.97
2019-06-26T17:40:44.165Z,6.33
2019-06-26T17:43:13.843Z,6.12
2019-06-26T17:45:43.754Z,5.83
2019-06-26T17:48:13.425Z,7.37
2019-06-26T17:50:43.134Z,4.27
2019-06-26T17:53:21.486Z,6.03
2019-06-26T17:55:44.225Z,5.05
2019-06-26T17:58:13.934Z,5.47
2019-06-26T18:00:43.633Z,7.23
2019-06-26T18:03:13.500Z,8.23
2019-06-26T18:05:43.228Z,5.30
2019-06-26T18:08:12.989Z,7.17
2019-06-26T18:10:42.788Z,7.20
2019-06-26T18:13:12.477Z,6.57
2019-06-26T18:15:42.306Z,6.93
2019-06-26T18:18:12.087Z,6.03
2019-06-26T18:20:41.849Z,11.23
2019-06-26T18:23:11.636Z,7.90
2019-06-26T18:25:42.572Z,7.30
2019-06-26T18:28:12.405Z,9.73
2019-06-26T18:30:42.251Z,7.70
2019-06-26T18:33:12.102Z,8.73
2019-06-26T18:35:41.883Z,13.00
2019-06-26T18:38:11.845Z,10.73
2019-06-26T18:40:41.515Z,8.80
2019-06-26T18:43:11.211Z,12.23
2019-06-26T18:45:41.006Z,11.17
2019-06-26T18:48:10.772Z,11.50
2019-06-26T18:50:40.652Z,10.50
2019-06-26T18:53:10.426Z,10.80
2019-06-26T18:55:40.186Z,14.77
2019-06-26T18:58:09.975Z,11.43
2019-06-26T19:00:39.728Z,8.80
2019-06-26T19:03:09.526Z,10.23
2019-06-26T19:05:39.778Z,11.03
2019-06-26T19:08:09.508Z,13.53
2019-06-26T19:10:39.262Z,11.10
2019-06-26T19:13:08.982Z,11.70
2019-06-26T19:15:38.731Z,9.53
2019-06-26T19:18:08.529Z,11.43
2019-06-26T19:20:38.210Z,10.13
2019-06-26T19:23:07.937Z,10.10
2019-06-26T19:25:37.695Z,9.17
2019-06-26T19:28:07.500Z,11.73
2019-06-26T19:30:37.262Z,10.97
2019-06-26T19:33:07.123Z,8.40
2019-06-26T19:35:36.919Z,9.97
2019-06-26T19:38:06.749Z,9.53
2019-06-26T19:40:36.540Z,13.63
2019-06-26T19:43:06.318Z,9.77
2019-06-26T19:45:36.020Z,8.10
2019-06-26T19:48:05.834Z,10.70
2019-06-26T19:50:35.562Z,6.97
2019-06-26T19:53:05.398Z,7.87
2019-06-26T19:55:35.166Z,6.30
2019-06-26T19:58:04.985Z,8.43
2019-06-26T20:00:34.739Z,8.97
2019-06-26T20:03:04.521Z,6.73
2019-06-26T20:05:34.281Z,7.77
2019-06-26T20:08:04.121Z,7.90
2019-06-26T20:10:33.943Z,6.60
2019-06-26T20:13:03.662Z,7.87
2019-06-26T20:15:33.578Z,7.80
2019-06-26T20:18:04.391Z,8.27
2019-06-26T20:20:34.291Z,6.67
2019-06-26T20:23:04.031Z,6.33
2019-06-26T20:25:33.902Z,8.10
2019-06-26T20:28:03.734Z,4.67
2019-06-26T20:30:33.900Z,5.50
2019-06-26T20:33:03.763Z,5.13
2019-06-26T20:35:33.530Z,5.30
2019-06-26T20:38:03.359Z,4.57
2019-06-26T20:40:33.077Z,7.83
2019-06-26T20:43:03.013Z,5.53
2019-06-26T20:45:32.799Z,7.50
2019-06-26T20:48:02.586Z,5.17
2019-06-26T20:50:32.363Z,9.40
2019-06-26T20:53:02.087Z,5.83
2019-06-26T20:55:31.803Z,7.83
2019-06-26T20:58:01.496Z,5.13
2019-06-26T21:00:31.318Z,5.50
2019-06-26T21:03:01.115Z,7.80
2019-06-26T21:05:30.806Z,5.37
2019-06-26T21:08:00.594Z,7.97
2019-06-26T21:10:30.361Z,6.97
2019-06-26T21:13:00.091Z,5.90
2019-06-26T21:15:29.978Z,6.03
2019-06-26T21:17:59.680Z,7.57
2019-06-26T21:20:29.373Z,7.20
2019-06-26T21:22:59.118Z,6.60
2019-06-26T21:25:28.813Z,7.57
2019-06-26T21:27:58.600Z,6.17
2019-06-26T21:30:28.319Z,8.37
2019-06-26T21:32:58.048Z,8.37
2019-06-26T21:35:27.804Z,10.93
2019-06-26T21:37:57.612Z,7.00
2019-06-26T21:40:27.295Z,9.17
2019-06-26T21:42:57.038Z,8.47
2019-06-26T21:45:26.832Z,9.30
2019-06-26T21:47:56.660Z,6.90
2019-06-26T21:50:28.831Z,9.27
2019-06-26T21:52:57.942Z,7.07
2019-06-26T21:55:34.409Z,9.07
2019-06-26T21:57:59.192Z,8.73
2019-06-26T22:00:30.987Z,7.33
2019-06-26T22:03:00.918Z,9.80
2019-06-26T22:05:30.760Z,8.60
2019-06-26T22:08:00.584Z,7.30
2019-06-26T22:10:30.481Z,8.73
2019-06-26T22:13:00.252Z,6.27
2019-06-26T22:15:30.066Z,9.37
2019-06-26T22:17:59.871Z,8.97
2019-06-26T22:20:29.738Z,10.50
2019-06-26T22:22:59.448Z,7.07
2019-06-26T22:25:29.312Z,8.23
2019-06-26T22:27:59.097Z,10.90
2019-06-26T22:30:29.055Z,8.63
2019-06-26T22:32:59.210Z,8.77
2019-06-26T22:35:28.973Z,8.87
2019-06-26T22:37:58.776Z,10.20
2019-06-26T22:40:28.536Z,8.90
2019-06-26T22:42:58.572Z,9.07
2019-06-26T22:45:28.325Z,8.97
2019-06-26T22:47:58.040Z,7.37
2019-06-26T22:50:27.807Z,6.90
2019-06-26T22:52:57.576Z,9.23
2019-06-26T22:55:27.443Z,8.13
2019-06-26T22:57:57.215Z,11.27
2019-06-26T23:00:26.994Z,9.77
2019-06-26T23:02:56.829Z,7.67
2019-06-26T23:05:26.715Z,12.07
2019-06-26T23:07:56.584Z,9.43
2019-06-26T23:10:26.423Z,11.83
2019-06-26T23:12:56.143Z,10.90
2019-06-26T23:15:25.916Z,8.13
2019-06-26T23:17:56.318Z,11.80
2019-06-26T23:20:26.132Z,9.97
2019-06-26T23:22:55.921Z,8.93
2019-06-26T23:25:25.796Z,6.23
2019-06-26T23:27:55.476Z,9.07
2019-06-26T23:30:25.435Z,7.93
2019-06-26T23:32:55.251Z,11.10
2019-06-26T23:35:25.006Z,8.97
2019-06-26T23:37:54.950Z,12.27
2019-06-26T23:40:24.716Z,7.80
2019-06-26T23:42:54.530Z,7.17
2019-06-26T23:45:24.364Z,5.37
2019-06-26T23:47:54.154Z,6.87
2019-06-26T23:50:23.834Z,6.93
2019-06-26T23:52:53.640Z,7.43
2019-06-26T23:55:23.431Z,9.30
2019-06-26T23:57:58.979Z,7.27
